Time;durP1;ratioP1;P1;durP2;ratioP2;P2;SDS_P1;SDS_P2;PMS_P1;PMS_P2;Temp;Humidity;BMP_temperature;BMP_pressure;BME280_temperature;BME280_humidity;BME280_pressure;Samples;Min_cycle;Max_cycle;Signal;HPM_P1;HPM_P2
2023/05/04 00:02:15;;;;;;;32.00;17.63;;;;;;;10.82;100.00;99705.28;5019728;28;20026;-70
2023/05/04 00:04:41;;;;;;;27.05;16.75;;;;;;;10.93;100.00;99702.13;5011218;28;20025;-70
2023/05/04 00:07:07;;;;;;;23.27;16.08;;;;;;;10.85;100.00;99705.75;5016983;28;20029;-70
2023/05/04 00:09:32;;;;;;;33.97;17.30;;;;;;;10.83;100.00;99697.72;5030262;28;20025;-71
2023/05/04 00:11:58;;;;;;;29.25;18.58;;;;;;;10.82;100.00;99696.06;5029397;28;20034;-70
2023/05/04 00:14:23;;;;;;;27.63;17.48;;;;;;;10.85;100.00;99694.56;5030782;28;20029;-70
2023/05/04 00:16:48;;;;;;;28.85;17.20;;;;;;;10.86;100.00;99694.25;5028614;28;20083;-70
2023/05/04 00:19:14;;;;;;;28.90;19.50;;;;;;;10.82;100.00;99696.88;5030829;28;20025;-70
2023/05/04 00:21:39;;;;;;;37.10;18.98;;;;;;;10.74;100.00;99692.13;5030294;28;20026;-70
2023/05/04 00:24:05;;;;;;;30.08;18.73;;;;;;;10.77;100.00;99694.25;5025053;28;20037;-70
2023/05/04 00:26:31;;;;;;;36.17;19.20;;;;;;;10.73;100.00;99689.66;5022794;28;20040;-70
2023/05/04 00:28:56;;;;;;;31.50;19.02;;;;;;;10.77;100.00;99685.03;5024463;28;20412;-70
2023/05/04 00:31:22;;;;;;;27.02;18.73;;;;;;;10.80;100.00;99670.41;5013283;28;20029;-70
2023/05/04 00:33:47;;;;;;;28.83;18.75;;;;;;;10.67;100.00;99661.03;5028154;28;20025;-70
2023/05/04 00:36:12;;;;;;;33.83;19.05;;;;;;;10.64;100.00;99673.69;5030813;28;20404;-71
2023/05/04 00:38:53;;;;;;;29.35;19.02;;;;;;;10.76;100.00;99681.44;5030077;28;20022;-70
2023/05/04 00:41:19;;;;;;;;;;;;;;;10.80;100.00;99688.00;5023748;28;20408;-69
2023/05/04 00:43:44;;;;;;;32.67;19.48;;;;;;;10.81;100.00;99678.44;5030518;28;20004;-70
2023/05/04 00:46:11;;;;;;;29.38;18.75;;;;;;;10.80;100.00;99682.41;5029566;28;20046;-70
2023/05/04 00:48:40;;;;;;;31.00;19.85;;;;;;;10.89;100.00;99685.19;5026904;28;20538;-70
2023/05/04 00:51:07;;;;;;;32.33;19.02;;;;;;;10.82;100.00;99696.88;5028481;28;20022;-70
2023/05/04 00:53:35;;;;;;;37.15;21.70;;;;;;;10.91;100.00;99696.03;5030714;28;20471;-70
2023/05/04 00:56:01;;;;;;;33.03;19.58;;;;;;;10.88;100.00;99688.31;5032841;28;20021;-70
2023/05/04 00:58:27;;;;;;;33.38;22.00;;;;;;;10.89;100.00;99695.56;5023886;28;20083;-70
2023/05/04 01:00:53;;;;;;;32.30;21.90;;;;;;;10.78;100.00;99687.50;5032116;28;20037;-71
2023/05/04 01:03:18;;;;;;;40.15;22.83;;;;;;;10.86;100.00;99696.19;5017929;28;20084;-70
2023/05/04 01:05:57;;;;;;;31.20;20.92;;;;;;;10.89;100.00;99689.97;5014315;28;20026;-70
2023/05/04 01:08:30;;;;;;;35.40;22.40;;;;;;;10.91;100.00;99688.47;5028473;28;20117;-70
2023/05/04 01:11:18;;;;;;;35.30;22.27;;;;;;;10.90;100.00;99695.22;5032403;28;20021;-70
2023/05/04 01:13:45;;;;;;;32.65;20.88;;;;;;;10.87;100.00;99693.09;5014157;28;20026;-70
2023/05/04 01:16:12;;;;;;;29.52;19.73;;;;;;;10.91;100.00;99694.06;5020359;28;20047;-71
2023/05/04 01:18:37;;;;;;;35.05;21.05;;;;;;;10.90;100.00;99700.00;5032639;28;20014;-70
2023/05/04 01:21:03;;;;;;;34.38;19.70;;;;;;;10.89;100.00;99693.56;5033028;28;20507;-70
2023/05/04 01:23:28;;;;;;;33.03;21.45;;;;;;;10.82;100.00;99699.66;5029716;28;20067;-70
2023/05/04 01:26:16;;;;;;;33.38;21.30;;;;;;;10.88;100.00;99691.13;5030081;28;20063;-70
2023/05/04 01:28:54;;;;;;;33.22;21.17;;;;;;;10.91;100.00;99698.84;5033669;28;20492;-70
2023/05/04 01:31:22;;;;;;;36.08;22.92;;;;;;;10.88;100.00;99702.31;5030791;28;20049;-70
2023/05/04 01:33:51;;;;;;;37.80;21.77;;;;;;;10.83;100.00;99692.13;5029918;28;20108;-70
2023/05/04 01:36:19;;;;;;;47.30;25.08;;;;;;;10.76;100.00;99694.59;5015779;28;20034;-70
2023/05/04 01:38:47;;;;;;;39.03;23.95;;;;;;;10.82;100.00;99696.06;5019000;28;20026;-70
2023/05/04 01:41:13;;;;;;;36.70;23.25;;;;;;;10.80;100.00;99692.78;5015055;28;20049;-70
2023/05/04 01:43:41;;;;;;;35.08;21.13;;;;;;;10.90;100.00;99688.81;5032198;28;20498;-70
2023/05/04 01:46:06;;;;;;;36.17;22.13;;;;;;;10.92;100.00;99689.28;5033049;28;20032;-70
2023/05/04 01:48:32;;;;;;;39.70;23.08;;;;;;;10.78;100.00;99684.72;5030343;28;20025;-70
2023/05/04 01:50:57;;;;;;;43.58;25.42;;;;;;;10.73;100.00;99684.88;5013538;28;20103;-70
2023/05/04 01:53:23;;;;;;;39.15;21.95;;;;;;;10.60;100.00;99686.69;5031557;28;20029;-70
2023/05/04 01:55:48;;;;;;;44.97;24.88;;;;;;;10.67;100.00;99691.78;5033020;28;20021;-71
2023/05/04 01:58:14;;;;;;;44.45;24.15;;;;;;;10.65;100.00;99688.50;5031958;28;20107;-70
2023/05/04 02:00:39;;;;;;;44.22;26.58;;;;;;;10.58;100.00;99682.59;5033033;28;20029;-71
2023/05/04 02:03:05;;;;;;;50.78;27.42;;;;;;;10.61;100.00;99687.50;5030035;28;20087;-71
2023/05/04 02:05:30;;;;;;;47.97;28.02;;;;;;;10.58;100.00;99689.00;5014832;28;20033;-70
2023/05/04 02:07:56;;;;;;;45.30;25.00;;;;;;;10.50;100.00;99687.88;5022526;28;20068;-70
2023/05/04 02:10:21;;;;;;;52.00;25.80;;;;;;;10.51;100.00;99691.47;5031421;28;20021;-71
2023/05/04 02:12:47;;;;;;;43.35;25.02;;;;;;;10.53;100.00;99677.97;5032259;28;20124;-71
2023/05/04 02:15:12;;;;;;;44.30;25.08;;;;;;;10.48;100.00;99684.56;5032627;28;20025;-71
2023/05/04 02:17:38;;;;;;;44.50;24.67;;;;;;;10.33;100.00;99651.47;5031492;28;20021;-71
2023/05/04 02:20:04;;;;;;;39.60;23.08;;;;;;;10.44;100.00;99680.78;5032562;28;20036;-71
2023/05/04 02:22:29;;;;;;;42.00;21.58;;;;;;;10.41;100.00;99684.25;5029767;28;20029;-71
2023/05/04 02:24:55;;;;;;;43.05;24.65;;;;;;;10.38;100.00;99693.25;5013012;28;20492;-71
2023/05/04 02:27:20;;;;;;;43.50;23.50;;;;;;;10.41;100.00;99687.03;5012572;28;20386;-71
2023/05/04 02:29:46;;;;;;;55.40;24.38;;;;;;;10.36;100.00;99681.56;5012687;28;20022;-71
2023/05/04 02:32:11;;;;;;;38.33;22.50;;;;;;;10.34;100.00;99683.88;5019991;28;20059;-71
2023/05/04 02:34:37;;;;;;;37.20;21.83;;;;;;;10.33;100.00;99680.25;5031068;28;20036;-71
2023/05/04 02:37:03;;;;;;;40.00;21.30;;;;;;;10.38;100.00;99662.50;5030004;28;20021;-70
2023/05/04 02:39:28;;;;;;;40.63;23.42;;;;;;;10.46;100.00;99667.28;5030077;28;20021;-71
2023/05/04 02:41:54;;;;;;;43.45;24.05;;;;;;;10.47;100.00;99688.50;5018888;28;20021;-71
2023/05/04 02:44:19;;;;;;;39.80;22.27;;;;;;;10.46;100.00;99678.47;5032117;28;20025;-70
2023/05/04 02:46:45;;;;;;;48.10;23.15;;;;;;;10.40;100.00;99690.97;5031746;28;20048;-71
2023/05/04 02:49:10;;;;;;;41.75;25.25;;;;;;;10.33;100.00;99688.66;5029752;28;20040;-70
2023/05/04 02:51:35;;;;;;;39.17;22.77;;;;;;;10.34;100.00;99697.84;5025905;28;20393;-70
2023/05/04 02:54:01;;;;;;;41.45;21.98;;;;;;;10.37;100.00;99689.63;5031129;28;20031;-70
2023/05/04 02:56:26;;;;;;;33.75;21.77;;;;;;;10.32;100.00;99698.19;5031176;28;20028;-70
2023/05/04 02:58:52;;;;;;;39.53;21.75;;;;;;;10.44;100.00;99699.50;5012192;28;20025;-70
2023/05/04 03:01:17;;;;;;;33.08;20.67;;;;;;;10.41;100.00;99701.03;5013237;28;20029;-70
2023/05/04 03:03:43;;;;;;;40.47;21.08;;;;;;;10.34;100.00;99700.66;5014485;28;20022;-70
2023/05/04 03:06:08;;;;;;;38.70;20.55;;;;;;;10.33;100.00;99697.03;5027956;28;20569;-70
2023/05/04 03:08:34;;;;;;;38.30;21.80;;;;;;;10.34;100.00;99709.03;5029871;28;20029;-70
2023/05/04 03:11:00;;;;;;;34.90;22.25;;;;;;;10.41;100.00;99703.81;5031620;28;20064;-70
2023/05/04 03:13:25;;;;;;;40.72;20.58;;;;;;;10.39;100.00;99708.88;5030728;28;20029;-70
2023/05/04 03:15:51;;;;;;;36.35;19.23;;;;;;;10.43;100.00;99701.50;5011773;28;20041;-70
2023/05/04 03:18:16;;;;;;;35.30;18.65;;;;;;;10.40;100.00;99705.75;5011325;28;20505;-71
2023/05/04 03:20:42;;;;;;;27.20;17.23;;;;;;;10.32;100.00;99706.59;5011931;28;20418;-71
2023/05/04 03:23:07;;;;;;;32.60;18.75;;;;;;;10.31;100.00;99702.13;5018925;28;20546;-71
2023/05/04 03:25:33;;;;;;;29.70;17.38;;;;;;;10.38;100.00;99702.47;5025483;28;20033;-71
2023/05/04 03:27:58;;;;;;;28.33;17.65;;;;;;;10.34;100.00;99709.03;5016241;28;20066;-71
2023/05/04 03:30:24;;;;;;;31.02;17.42;;;;;;;10.37;100.00;99708.38;5012051;28;20493;-71
2023/05/04 03:32:49;;;;;;;30.60;17.67;;;;;;;10.35;100.00;99710.69;5030679;28;20033;-71
2023/05/04 03:35:15;;;;;;;31.27;19.73;;;;;;;10.33;100.00;99718.56;5031080;28;20053;-70
2023/05/04 03:37:40;;;;;;;32.45;18.40;;;;;;;10.49;100.00;99719.75;5030688;28;20029;-71
2023/05/04 03:40:06;;;;;;;30.77;18.17;;;;;;;10.35;100.00;99727.44;5027113;28;20022;-70
2023/05/04 03:42:32;;;;;;;36.40;19.25;;;;;;;10.32;100.00;99726.16;5019511;28;20400;-71
2023/05/04 03:44:57;;;;;;;30.70;19.40;;;;;;;10.29;100.00;99720.38;5028213;28;20040;-70
2023/05/04 03:47:23;;;;;;;29.05;18.58;;;;;;;10.23;100.00;99726.13;5030414;28;20052;-70
2023/05/04 03:49:48;;;;;;;26.58;15.93;;;;;;;10.21;100.00;99728.41;5031079;28;20033;-70
2023/05/04 03:52:14;;;;;;;25.02;16.08;;;;;;;10.16;100.00;99728.59;5030437;28;20033;-69
2023/05/04 03:54:39;;;;;;;27.52;16.63;;;;;;;10.15;100.00;99724.16;5029059;28;20075;-75
2023/05/04 03:57:05;;;;;;;28.50;17.27;;;;;;;10.12;100.00;99730.38;5022098;28;20508;-70
2023/05/04 03:59:30;;;;;;;26.90;15.35;;;;;;;10.17;100.00;99726.59;5011644;28;20025;-74
2023/05/04 04:01:56;;;;;;;33.65;17.75;;;;;;;10.14;100.00;99730.91;5017293;28;20021;-69
2023/05/04 04:04:21;;;;;;;30.10;16.35;;;;;;;10.10;100.00;99735.47;5031014;28;20029;-72
2023/05/04 04:06:47;;;;;;;28.77;16.23;;;;;;;10.16;100.00;99736.13;5012362;28;20037;-71
2023/05/04 04:09:12;;;;;;;26.38;16.58;;;;;;;10.12;100.00;99730.38;5029253;28;20040;-72
2023/05/04 04:11:38;;;;;;;32.50;18.67;;;;;;;10.11;100.00;99740.75;5022969;28;20049;-71
2023/05/04 04:14:03;;;;;;;33.47;17.08;;;;;;;10.17;100.00;99747.00;5018792;28;20095;-72
2023/05/04 04:16:29;;;;;;;30.85;18.13;;;;;;;10.13;100.00;99740.41;5024112;28;20311;-72
2023/05/04 04:18:55;;;;;;;29.35;18.25;;;;;;;10.12;100.00;99747.13;5031033;28;20022;-73
2023/05/04 04:21:20;;;;;;;36.35;18.95;;;;;;;10.13;100.00;99747.97;5023857;28;20615;-72
2023/05/04 04:23:46;;;;;;;34.88;19.00;;;;;;;10.14;100.00;99738.44;5024075;28;20057;-72
2023/05/04 04:26:11;;;;;;;36.85;19.50;;;;;;;10.09;100.00;99739.41;5019471;28;20404;-72
2023/05/04 04:28:36;;;;;;;29.50;17.70;;;;;;;10.13;100.00;99740.41;5028280;28;20032;-70
2023/05/04 04:31:02;;;;;;;53.63;18.67;;;;;;;10.18;100.00;99747.81;5024862;28;20025;-71
2023/05/04 04:33:28;;;;;;;27.15;16.85;;;;;;;10.22;100.00;99757.22;5018423;28;20033;-70
2023/05/04 04:35:53;;;;;;;30.88;17.65;;;;;;;10.18;100.00;99742.22;5025378;28;20060;-74
2023/05/04 04:38:19;;;;;;;29.35;17.00;;;;;;;10.28;100.00;99757.88;5030035;28;20511;-73
2023/05/04 04:40:44;;;;;;;34.88;18.65;;;;;;;10.24;100.00;99752.13;5015443;28;20127;-74
2023/05/04 04:43:10;;;;;;;31.08;17.92;;;;;;;10.20;100.00;99760.31;5021383;28;20041;-73
2023/05/04 04:45:36;;;;;;;29.25;18.42;;;;;;;10.40;100.00;99763.66;5023165;28;20030;-73
2023/05/04 04:48:02;;;;;;;30.80;17.73;;;;;;;10.29;100.00;99771.50;5030145;28;20049;-72
2023/05/04 04:50:28;;;;;;;29.48;17.35;;;;;;;10.34;100.00;99771.38;5028796;28;20052;-73
2023/05/04 04:52:54;;;;;;;36.08;16.17;;;;;;;10.35;100.00;99777.78;5022601;28;20037;-72
2023/05/04 04:55:20;;;;;;;37.50;17.55;;;;;;;10.49;100.00;99772.88;5024839;28;20103;-73
2023/05/04 04:57:45;;;;;;;28.63;16.88;;;;;;;10.56;100.00;99777.19;5023973;28;20469;-77
2023/05/04 05:00:14;;;;;;;22.77;15.63;;;;;;;10.63;100.00;99775.53;5024966;28;20079;-73
2023/05/04 05:02:40;;;;;;;20.73;15.07;;;;;;;10.58;100.00;99769.28;5024167;28;20041;-70
2023/05/04 05:05:06;;;;;;;20.88;13.55;;;;;;;10.52;100.00;99777.84;5027257;28;20194;-69
2023/05/04 05:07:31;;;;;;;32.75;15.88;;;;;;;10.57;100.00;99768.47;5025369;28;20026;-69
2023/05/04 05:09:57;;;;;;;27.88;15.82;;;;;;;10.50;100.00;99768.97;5022991;28;20029;-70
2023/05/04 05:12:23;;;;;;;28.30;16.15;;;;;;;10.60;100.00;99779.00;5023990;28;20022;-71
2023/05/04 05:14:49;;;;;;;29.00;14.75;;;;;;;10.53;100.00;99771.09;5022315;28;20157;-70
2023/05/04 05:17:15;;;;;;;23.83;13.32;;;;;;;10.70;100.00;99779.84;5022561;28;20109;-70
2023/05/04 05:19:40;;;;;;;21.98;15.20;;;;;;;10.58;100.00;99774.88;5023129;28;20033;-72
2023/05/04 05:22:06;;;;;;;25.95;15.48;;;;;;;10.63;100.00;99781.13;5026663;28;20036;-71
2023/05/04 05:24:31;;;;;;;21.73;13.80;;;;;;;10.78;100.00;99779.00;5027003;28;20523;-69
2023/05/04 05:26:57;;;;;;;22.73;13.95;;;;;;;10.66;100.00;99769.28;5019159;28;20405;-69
2023/05/04 05:29:23;;;;;;;26.85;15.77;;;;;;;10.66;100.00;99768.47;5031506;28;20044;-69
2023/05/04 05:31:49;;;;;;;26.25;14.68;;;;;;;10.59;100.00;99768.97;5012165;28;20584;-68
2023/05/04 05:34:15;;;;;;;35.25;16.98;;;;;;;10.65;100.00;99776.03;5014087;28;20133;-70
2023/05/04 05:36:40;;;;;;;20.58;14.25;;;;;;;10.68;100.00;99782.97;5028752;28;20041;-71
2023/05/04 05:39:05;;;;;;;22.10;14.68;;;;;;;10.64;100.00;99785.59;5023888;28;20409;-70
2023/05/04 05:41:31;;;;;;;21.98;12.93;;;;;;;10.77;100.00;99783.78;5012012;28;20072;-74
2023/05/04 05:43:56;;;;;;;20.23;13.13;;;;;;;10.76;100.00;99789.72;5012082;28;20049;-70
2023/05/04 05:46:23;;;;;;;23.08;13.88;;;;;;;10.69;100.00;99786.59;5012008;28;20054;-71
2023/05/04 05:48:49;;;;;;;17.00;11.90;;;;;;;10.69;100.00;99798.59;5027401;28;20044;-71
2023/05/04 05:51:15;;;;;;;20.35;11.40;;;;;;;10.90;100.00;99797.94;5016329;28;20421;-72
2023/05/04 05:53:41;;;;;;;24.23;13.20;;;;;;;10.78;100.00;99796.63;5027077;28;20120;-69
2023/05/04 05:56:07;;;;;;;16.48;11.60;;;;;;;10.86;100.00;99797.78;5018343;28;20040;-73
2023/05/04 05:58:32;;;;;;;18.23;12.00;;;;;;;10.95;100.00;99794.97;5021777;28;20021;-72
2023/05/04 06:00:58;;;;;;;19.33;13.07;;;;;;;10.87;100.00;99795.81;5019995;28;20037;-73
2023/05/04 06:03:23;;;;;;;20.73;11.50;;;;;;;10.99;100.00;99801.56;5022835;28;20056;-74
2023/05/04 06:05:48;;;;;;;16.35;11.68;;;;;;;11.09;100.00;99798.41;5022622;28;20059;-74
2023/05/04 06:08:14;;;;;;;19.35;11.68;;;;;;;11.08;100.00;99796.78;5019074;28;20373;-74
2023/05/04 06:10:39;;;;;;;20.90;11.70;;;;;;;11.10;100.00;99802.06;5025585;28;20051;-73
2023/05/04 06:13:05;;;;;;;20.40;12.82;;;;;;;10.99;100.00;99792.34;5014801;28;20037;-74
2023/05/04 06:15:30;;;;;;;22.15;13.25;;;;;;;11.04;100.00;99790.19;5017978;28;20092;-73
2023/05/04 06:17:56;;;;;;;25.52;13.95;;;;;;;11.23;100.00;99791.84;5022825;28;20018;-75
2023/05/04 06:20:21;;;;;;;21.98;13.00;;;;;;;11.36;100.00;99793.63;5020320;28;20393;-75
2023/05/04 06:22:47;;;;;;;16.55;12.60;;;;;;;11.44;100.00;99793.91;5024355;28;20025;-76
2023/05/04 06:25:12;;;;;;;29.10;13.13;;;;;;;11.51;100.00;99802.66;5023700;28;20068;-76
2023/05/04 06:27:38;;;;;;;22.48;12.18;;;;;;;11.54;100.00;99810.38;5025898;28;20487;-76
2023/05/04 06:30:04;;;;;;;19.88;11.80;;;;;;;11.56;100.00;99804.47;5027741;28;20056;-76
2023/05/04 06:32:30;;;;;;;25.98;14.38;;;;;;;11.60;100.00;99811.03;5023724;28;20044;-73
2023/05/04 06:34:55;;;;;;;25.50;15.07;;;;;;;11.56;100.00;99802.47;5017053;28;20029;-74
2023/05/04 06:37:21;;;;;;;32.35;15.15;;;;;;;11.48;100.00;99806.13;5023341;28;20487;-72
2023/05/04 06:39:47;;;;;;;33.50;16.38;;;;;;;11.48;100.00;99803.31;5014210;28;20030;-77
2023/05/04 06:42:12;;;;;;;23.33;14.02;;;;;;;11.55;100.00;99800.00;5015017;28;20037;-74
2023/05/04 06:44:38;;;;;;;28.90;15.95;;;;;;;11.31;100.00;99804.19;5018914;28;20570;-75
2023/05/04 06:47:06;;;;;;;28.55;15.50;;;;;;;11.37;100.00;99803.66;5012524;28;20045;-75
2023/05/04 06:49:31;;;;;;;33.90;15.18;;;;;;;11.34;100.00;99806.31;5018978;28;20052;-75
2023/05/04 06:51:57;;;;;;;32.80;15.75;;;;;;;11.52;100.00;99795.88;5028438;28;20341;-71
2023/05/04 06:54:22;;;;;;;32.50;18.92;;;;;;;11.55;100.00;99806.41;5020537;28;20025;-74
2023/05/04 06:56:48;;;;;;;38.88;20.02;;;;;;;11.49;100.00;99802.16;5016069;28;20037;-74
2023/05/04 06:59:15;;;;;;;36.33;21.17;;;;;;;11.42;100.00;99801.84;5021896;28;20108;-75
2023/05/04 07:01:41;;;;;;;39.55;21.15;;;;;;;11.38;100.00;99808.13;5012801;28;20492;-73
2023/05/04 07:04:06;;;;;;;33.92;19.85;;;;;;;11.37;100.00;99809.28;5015794;28;20088;-74
2023/05/04 07:06:32;;;;;;;35.42;22.42;;;;;;;11.45;100.00;99809.56;5029092;28;20037;-74
2023/05/04 07:08:58;;;;;;;45.13;22.50;;;;;;;11.47;100.00;99807.28;5017022;28;20029;-74
2023/05/04 07:11:23;;;;;;;42.35;21.13;;;;;;;11.46;100.00;99802.81;5021096;28;20092;-73
2023/05/04 07:13:49;;;;;;;41.28;20.92;;;;;;;11.52;100.00;99795.88;5016828;28;20021;-73
2023/05/04 07:16:14;;;;;;;45.58;21.55;;;;;;;11.64;100.00;99806.38;5024794;28;20467;-74
2023/05/04 07:18:40;;;;;;;38.53;21.25;;;;;;;11.70;100.00;99804.22;5014049;28;20022;-73
2023/05/04 07:21:10;;;;;;;35.30;20.70;;;;;;;11.61;100.00;99807.91;5022818;28;20025;-74
2023/05/04 07:23:36;;;;;;;46.50;23.98;;;;;;;11.57;100.00;99812.50;5025916;28;20477;-74
2023/05/04 07:26:03;;;;;;;45.10;23.60;;;;;;;11.61;100.00;99815.47;5028321;28;20104;-74
2023/05/04 07:28:29;;;;;;;52.67;30.23;;;;;;;11.59;100.00;99807.41;5016426;28;20509;-73
2023/05/04 07:30:54;;;;;;;51.45;29.63;;;;;;;11.49;100.00;99808.56;5019717;28;20507;-74
2023/05/04 07:33:20;;;;;;;54.25;29.50;;;;;;;11.56;100.00;99810.06;5025190;28;20112;-73
2023/05/04 07:35:46;;;;;;;51.88;29.88;;;;;;;11.63;100.00;99804.75;5025479;28;20051;-72
2023/05/04 07:38:11;;;;;;;57.75;30.83;;;;;;;11.70;100.00;99802.25;5018848;28;20109;-72
2023/05/04 07:40:37;;;;;;;62.28;28.67;;;;;;;11.85;100.00;99808.47;5020547;28;20037;-73
2023/05/04 07:43:02;;;;;;;54.05;30.90;;;;;;;11.84;100.00;99802.06;5018238;28;20021;-73
2023/05/04 07:45:27;;;;;;;59.90;30.77;;;;;;;11.65;100.00;99808.88;5014306;28;20022;-73
2023/05/04 07:47:53;;;;;;;59.55;31.90;;;;;;;11.76;100.00;99805.72;5023720;28;20046;-73
2023/05/04 07:50:18;;;;;;;51.47;29.90;;;;;;;11.78;100.00;99807.03;5017963;28;20034;-73
2023/05/04 07:52:46;;;;;;;57.70;30.88;;;;;;;11.81;100.00;99805.50;5025207;28;20025;-75
2023/05/04 07:55:12;;;;;;;51.83;29.48;;;;;;;11.95;100.00;99813.72;5021738;28;20033;-72
2023/05/04 07:57:37;;;;;;;48.70;29.45;;;;;;;11.88;100.00;99814.25;5023713;28;20018;-73
2023/05/04 08:00:07;;;;;;;48.08;28.40;;;;;;;11.93;100.00;99818.84;5025185;28;20029;-74
2023/05/04 08:02:33;;;;;;;55.70;26.83;;;;;;;11.94;100.00;99807.31;5013958;28;20030;-75
2023/05/04 08:04:58;;;;;;;51.60;27.80;;;;;;;12.03;100.00;99812.06;5032857;28;20029;-75
2023/05/04 08:07:24;;;;;;;50.67;28.98;;;;;;;12.07;100.00;99827.88;5026350;28;20041;-76
2023/05/04 08:09:51;;;;;;;46.45;28.70;;;;;;;12.02;100.00;99824.44;5017409;28;20036;-76
2023/05/04 08:12:16;;;;;;;48.38;28.13;;;;;;;12.04;100.00;99822.09;5015182;28;20420;-73
2023/05/04 08:14:45;;;;;;;51.20;29.00;;;;;;;12.05;100.00;99818.16;5019181;28;20025;-74
2023/05/04 08:17:10;;;;;;;43.80;28.27;;;;;;;12.21;100.00;99822.03;5016243;28;20119;-73
2023/05/04 08:19:36;;;;;;;49.83;28.70;;;;;;;12.35;100.00;99826.59;5020706;28;20026;-74
2023/05/04 08:22:01;;;;;;;49.85;28.10;;;;;;;12.47;100.00;99829.50;5026464;28;20599;-72
2023/05/04 08:24:27;;;;;;;53.45;29.40;;;;;;;12.48;100.00;99833.09;5017891;28;20505;-74
2023/05/04 08:26:52;;;;;;;49.50;27.90;;;;;;;12.57;100.00;99821.84;5023903;28;20037;-72
2023/05/04 08:29:18;;;;;;;55.35;31.08;;;;;;;12.54;100.00;99828.97;5023203;28;20084;-73
2023/05/04 08:31:43;;;;;;;46.63;28.65;;;;;;;12.63;100.00;99823.28;5023050;28;20390;-72
2023/05/04 08:34:09;;;;;;;48.28;28.00;;;;;;;12.71;100.00;99828.03;5017428;28;20408;-71
2023/05/04 08:36:34;;;;;;;45.00;27.70;;;;;;;12.43;100.00;99824.91;5017227;28;20029;-70
2023/05/04 08:39:00;;;;;;;53.03;29.60;;;;;;;12.61;100.00;99828.41;5024211;28;20029;-72
2023/05/04 08:41:25;;;;;;;49.53;28.75;;;;;;;12.74;100.00;99830.13;5018448;28;20036;-72
2023/05/04 08:43:51;;;;;;;48.35;26.88;;;;;;;12.72;100.00;99832.47;5020601;28;20021;-73
2023/05/04 08:46:16;;;;;;;48.15;28.25;;;;;;;12.57;99.70;99835.88;5013822;28;20074;-72
2023/05/04 08:48:45;;;;;;;50.42;28.35;;;;;;;12.30;100.00;99824.81;5023308;28;20049;-72
2023/05/04 08:51:10;;;;;;;44.10;27.63;;;;;;;12.43;100.00;99825.72;5022006;28;20033;-72
2023/05/04 08:53:39;;;;;;;55.22;30.02;;;;;;;12.59;100.00;99825.94;5020889;28;20033;-77
2023/05/04 08:56:08;;;;;;;49.67;29.35;;;;;;;12.70;100.00;99820.78;5027812;28;20041;-78
2023/05/04 08:58:36;;;;;;;46.53;29.23;;;;;;;12.77;99.61;99809.00;5054000;28;20029;-77
2023/05/04 09:01:05;;;;;;;45.88;28.00;;;;;;;12.31;100.00;99817.22;5026642;28;20033;-78
2023/05/04 09:03:31;;;;;;;45.95;29.40;;;;;;;11.93;100.00;99816.84;5014068;28;20045;-78
2023/05/04 09:05:58;;;;;;;55.72;29.65;;;;;;;11.87;100.00;99820.16;5011550;28;20409;-77
2023/05/04 09:08:24;;;;;;;52.83;29.67;;;;;;;11.58;100.00;99814.16;5013993;28;20034;-79
2023/05/04 09:10:50;;;;;;;65.80;33.45;;;;;;;11.70;100.00;99816.28;5022509;28;20018;-77
2023/05/04 09:13:15;;;;;;;58.70;32.90;;;;;;;11.93;100.00;99822.44;5014033;28;20425;-76
2023/05/04 09:15:41;;;;;;;59.22;33.75;;;;;;;11.70;100.00;99813.47;5020097;28;20079;-73
2023/05/04 09:18:08;;;;;;;66.32;33.05;;;;;;;11.76;100.00;99820.53;5031297;28;20404;-76
2023/05/04 09:20:45;;;;;;;65.70;33.45;;;;;;;11.57;100.00;99818.09;5029823;28;20029;-75
2023/05/04 09:23:12;;;;;;;64.60;33.05;;;;;;;11.90;100.00;99830.72;5027859;28;20025;-73
2023/05/04 09:25:54;;;;;;;63.42;34.85;;;;;;;11.76;100.00;99819.72;5025111;28;20492;-76
2023/05/04 09:28:32;;;;;;;57.20;32.47;;;;;;;11.58;100.00;99821.75;5020787;28;20030;-70
2023/05/04 09:30:59;;;;;;;64.95;33.08;;;;;;;11.34;100.00;99828.72;5029341;28;20033;-68
2023/05/04 09:33:29;;;;;;;62.40;34.22;;;;;;;11.38;100.00;99819.31;5027630;28;20037;-69
2023/05/04 09:35:56;;;;;;;69.43;37.90;;;;;;;11.57;100.00;99820.09;5025727;28;20043;-68
2023/05/04 09:38:29;;;;;;;65.43;35.22;;;;;;;11.51;100.00;99817.47;5028991;28;20029;-69
2023/05/04 09:40:55;;;;;;;60.53;33.58;;;;;;;11.52;100.00;99818.31;5029498;28;20041;-72
2023/05/04 09:43:22;;;;;;;70.35;37.03;;;;;;;11.42;100.00;99819.47;5028996;28;20087;-68
2023/05/04 09:45:47;;;;;;;66.47;33.25;;;;;;;11.36;100.00;99830.03;5012760;28;20034;-69
2023/05/04 09:48:27;;;;;;;58.90;34.65;;;;;;;11.37;100.00;99814.88;5023508;28;20510;-70
2023/05/04 09:50:58;;;;;;;66.75;35.47;;;;;;;11.35;100.00;99814.38;5029808;28;20043;-70
2023/05/04 09:53:28;;;;;;;70.63;36.50;;;;;;;11.23;100.00;99817.03;5012586;28;20042;-68
2023/05/04 09:56:04;;;;;;;67.47;37.13;;;;;;;11.33;100.00;99804.66;5030519;28;20100;-68
2023/05/04 09:58:30;;;;;;;66.68;34.80;;;;;;;11.46;100.00;99794.41;5028898;28;20034;-69
2023/05/04 10:00:59;;;;;;;67.38;34.45;;;;;;;11.49;100.00;99802.97;5024077;28;20097;-70
2023/05/04 10:03:26;;;;;;;66.18;34.55;;;;;;;11.49;100.00;99799.38;5018503;28;20037;-71
2023/05/04 10:05:52;;;;;;;68.78;34.63;;;;;;;11.74;100.00;99797.63;5012074;28;20033;-70
2023/05/04 10:08:18;;;;;;;67.88;34.90;;;;;;;11.63;100.00;99797.19;5010221;28;20065;-69
2023/05/04 10:10:44;;;;;;;68.30;35.08;;;;;;;11.76;100.00;99794.50;5018081;28;20026;-72
2023/05/04 10:13:10;;;;;;;67.05;32.92;;;;;;;11.84;100.00;99796.47;5023977;28;20036;-72
2023/05/04 10:15:43;;;;;;;64.97;33.30;;;;;;;11.90;100.00;99797.09;5010932;28;20040;-72
2023/05/04 10:18:40;;;;;;;59.63;30.42;;;;;;;11.81;100.00;99797.09;5016237;28;20033;-70
2023/05/04 10:21:29;;;;;;;65.57;33.08;;;;;;;11.85;100.00;99786.06;5015694;28;20034;-73
2023/05/04 10:24:04;;;;;;;64.55;32.60;;;;;;;11.97;100.00;99793.75;5023924;28;20457;-73
2023/05/04 10:26:52;;;;;;;60.67;32.08;;;;;;;12.16;100.00;99796.19;5016330;28;20112;-73
2023/05/04 10:29:23;;;;;;;53.00;29.33;;;;;;;12.25;100.00;99796.97;5018221;28;20550;-72
2023/05/04 10:31:49;;;;;;;60.83;30.35;;;;;;;12.23;100.00;99790.84;5011779;28;20032;-72
2023/05/04 10:34:29;;;;;;;64.50;30.77;;;;;;;12.05;100.00;99799.34;5021994;28;20025;-71
2023/05/04 10:36:56;;;;;;;53.05;29.38;;;;;;;12.15;100.00;99792.53;5010985;28;20404;-72
2023/05/04 10:39:26;;;;;;;54.03;30.58;;;;;;;12.16;100.00;99794.19;5014158;28;20113;-72
2023/05/04 10:42:10;;;;;;;55.28;30.70;;;;;;;12.12;100.00;99792.38;5020559;28;20021;-74
2023/05/04 10:44:53;;;;;;;61.28;32.63;;;;;;;12.24;100.00;99798.09;5014843;28;20029;-73
2023/05/04 10:47:31;;;;;;;1391.25;247.93;;;;;;;12.48;100.00;99802.25;5026248;28;20033;-73
2023/05/04 10:50:08;;;;;;;69.93;31.02;;;;;;;12.19;100.00;99796.31;5026868;28;20400;-73
2023/05/04 10:52:48;;;;;;;525.38;120.28;;;;;;;12.11;100.00;99793.53;5016706;28;20037;-73
2023/05/04 10:55:14;;;;;;;68.50;33.13;;;;;;;12.26;100.00;99804.22;5019165;28;20057;-73
2023/05/04 10:57:54;;;;;;;283.27;75.65;;;;;;;12.52;100.00;99791.16;5021581;28;20567;-72
2023/05/04 11:00:20;;;;;;;;;;;;;;;12.69;100.00;99801.44;5019358;28;20022;-73
2023/05/04 11:02:47;;;;;;;82.78;35.38;;;;;;;12.64;100.00;99791.25;5018235;28;19963;-71
2023/05/04 11:05:18;;;;;;;117.93;43.70;;;;;;;12.52;100.00;99794.81;5028024;28;20045;-72
2023/05/04 11:07:44;;;;;;;69.80;31.90;;;;;;;12.80;100.00;99790.66;5014388;28;20022;-70
2023/05/04 11:10:29;;;;;;;97.75;60.90;;;;;;;12.60;100.00;99781.88;5016927;28;20022;-71